createdAt,value
2022-10-23T00:02:17.050Z,17.73
2022-10-23T00:04:43.442Z,25.95
2022-10-23T00:07:09.810Z,11.63
2022-10-23T00:09:36.207Z,14.18
2022-10-23T00:12:02.640Z,13.32
2022-10-23T00:14:29.140Z,11.80
2022-10-23T00:16:55.585Z,11.20
2022-10-23T00:19:21.980Z,10.70
2022-10-23T00:21:48.458Z,11.43
2022-10-23T00:24:14.945Z,16.10
2022-10-23T00:26:41.440Z,11.82
2022-10-23T00:29:08.712Z,12.43
2022-10-23T00:31:35.195Z,10.05
2022-10-23T00:34:01.789Z,12.82
2022-10-23T00:36:28.196Z,12.65
2022-10-23T00:38:55.975Z,12.73
2022-10-23T00:41:24.064Z,11.73
2022-10-23T00:43:56.211Z,12.38
2022-10-23T00:46:22.743Z,16.20
2022-10-23T00:48:49.168Z,16.95
2022-10-23T00:51:15.597Z,13.07
2022-10-23T00:53:43.397Z,12.05
2022-10-23T00:56:09.805Z,13.80
2022-10-23T00:58:36.305Z,13.43
2022-10-23T01:01:02.868Z,11.25
2022-10-23T01:03:29.505Z,11.65
2022-10-23T01:05:55.883Z,14.15
2022-10-23T01:08:41.113Z,13.82
2022-10-23T01:11:14.199Z,14.00
2022-10-23T01:13:44.777Z,10.98
2022-10-23T01:16:18.717Z,13.48
2022-10-23T01:18:46.988Z,16.50
2022-10-23T01:21:17.183Z,13.57
2022-10-23T01:24:13.110Z,12.60
2022-10-23T01:26:57.862Z,15.40
2022-10-23T01:29:47.438Z,13.95
2022-10-23T01:32:39.028Z,13.80
2022-10-23T01:35:11.589Z,16.70
2022-10-23T01:37:46.631Z,17.30
2022-10-23T01:40:24.994Z,13.38
2022-10-23T01:42:54.986Z,13.48
2022-10-23T01:45:27.392Z,11.20
2022-10-23T01:47:55.259Z,13.35
2022-10-23T01:50:22.976Z,13.77
2022-10-23T01:52:49.523Z,14.50
2022-10-23T01:55:16.586Z,15.30
2022-10-23T01:57:45.820Z,15.65
2022-10-23T02:00:13.307Z,12.70
2022-10-23T02:02:41.758Z,13.70
2022-10-23T02:05:39.276Z,13.80
2022-10-23T02:08:06.318Z,14.18
2022-10-23T02:10:40.146Z,14.75
2022-10-23T02:13:12.057Z,13.45
2022-10-23T02:15:41.369Z,18.08
2022-10-23T02:18:14.281Z,14.32
2022-10-23T02:20:45.475Z,14.00
2022-10-23T02:23:22.882Z,11.27
2022-10-23T02:25:53.439Z,11.32
2022-10-23T02:28:22.580Z,9.98
2022-10-23T02:30:50.379Z,11.48
2022-10-23T02:33:17.471Z,8.73
2022-10-23T02:35:44.529Z,10.75
2022-10-23T02:38:28.741Z,9.70
2022-10-23T02:40:57.526Z,9.57
2022-10-23T02:43:26.505Z,8.20
2022-10-23T02:46:13.300Z,13.25
2022-10-23T02:48:42.931Z,10.38
2022-10-23T02:51:15.830Z,10.73
2022-10-23T02:54:00.452Z,10.90
2022-10-23T02:56:34.535Z,9.95
2022-10-23T02:59:24.743Z,10.60
2022-10-23T03:01:53.160Z,13.60
2022-10-23T03:04:21.192Z,9.98
2022-10-23T03:06:49.166Z,9.95
2022-10-23T03:09:15.561Z,14.88
2022-10-23T03:11:41.929Z,11.18
2022-10-23T03:14:08.375Z,14.55
2022-10-23T03:16:35.961Z,15.02
2022-10-23T03:19:02.571Z,12.57
2022-10-23T03:21:29.001Z,18.05
2022-10-23T03:23:55.543Z,10.07
2022-10-23T03:26:22.024Z,12.68
2022-10-23T03:28:48.374Z,13.30
2022-10-23T03:31:14.719Z,8.77
2022-10-23T03:33:41.070Z,13.85
2022-10-23T03:36:07.714Z,10.48
2022-10-23T03:38:34.299Z,12.55
2022-10-23T03:41:00.632Z,10.73
2022-10-23T03:43:26.992Z,7.88
2022-10-23T03:45:53.353Z,8.45
2022-10-23T03:48:19.913Z,10.43
2022-10-23T03:50:46.286Z,10.23
2022-10-23T03:53:12.668Z,11.93
2022-10-23T03:55:39.103Z,11.88
2022-10-23T03:58:07.763Z,11.48
2022-10-23T04:00:34.336Z,12.20
2022-10-23T04:03:00.712Z,11.32
2022-10-23T04:05:27.100Z,12.57
2022-10-23T04:07:53.450Z,10.65
2022-10-23T04:10:19.834Z,12.55
2022-10-23T04:12:46.304Z,11.57
2022-10-23T04:15:12.759Z,10.98
2022-10-23T04:17:39.159Z,12.02
2022-10-23T04:20:05.628Z,15.65
2022-10-23T04:22:31.982Z,14.43
2022-10-23T04:24:58.359Z,11.85
2022-10-23T04:27:24.782Z,11.35
2022-10-23T04:29:54.251Z,11.68
2022-10-23T04:32:23.244Z,13.88
2022-10-23T04:34:49.885Z,11.98
2022-10-23T04:37:16.276Z,9.85
2022-10-23T04:39:42.754Z,10.07
2022-10-23T04:42:09.153Z,8.85
2022-10-23T04:44:35.534Z,12.15
2022-10-23T04:47:01.989Z,11.48
2022-10-23T04:49:28.366Z,11.05
2022-10-23T04:51:54.741Z,8.55
2022-10-23T04:54:21.136Z,9.68
2022-10-23T04:56:47.501Z,9.57
2022-10-23T04:59:13.874Z,10.05
2022-10-23T05:01:40.417Z,7.43
2022-10-23T05:04:06.944Z,9.02
2022-10-23T05:06:33.370Z,10.20
2022-10-23T05:08:59.904Z,8.55
2022-10-23T05:11:26.311Z,8.95
2022-10-23T05:13:52.799Z,5.35
2022-10-23T05:16:32.532Z,6.35
2022-10-23T05:19:00.081Z,8.63
2022-10-23T05:21:28.721Z,6.53
2022-10-23T05:23:55.277Z,7.80
2022-10-23T05:26:22.480Z,5.47
2022-10-23T05:28:49.451Z,5.40
2022-10-23T05:31:16.410Z,4.22
2022-10-23T05:33:42.859Z,4.30
2022-10-23T05:36:09.514Z,4.53
2022-10-23T05:38:36.257Z,7.80
2022-10-23T05:41:03.158Z,4.90
2022-10-23T05:43:31.282Z,4.22
2022-10-23T05:45:58.113Z,6.28
2022-10-23T05:48:35.206Z,5.75
2022-10-23T05:51:09.345Z,4.15
2022-10-23T05:53:38.749Z,4.75
2022-10-23T05:56:08.558Z,6.90
2022-10-23T05:58:35.050Z,3.80
2022-10-23T06:01:05.235Z,7.20
2022-10-23T06:03:31.745Z,37.20
2022-10-23T06:05:58.126Z,12.65
2022-10-23T06:08:24.520Z,9.90
2022-10-23T06:10:50.998Z,4.93
2022-10-23T06:13:17.467Z,4.32
2022-10-23T06:15:43.906Z,3.92
2022-10-23T06:18:10.491Z,16.83
2022-10-23T06:20:37.641Z,66.00
2022-10-23T06:23:04.746Z,7.57
2022-10-23T06:25:31.535Z,31.70
2022-10-23T06:27:57.941Z,18.42
2022-10-23T06:30:24.898Z,15.57
2022-10-23T06:32:51.469Z,14.40
2022-10-23T06:35:17.814Z,10.27
2022-10-23T06:37:44.302Z,14.50
2022-10-23T06:40:10.829Z,14.85
2022-10-23T06:42:37.228Z,13.38
2022-10-23T06:45:06.425Z,7.03
2022-10-23T06:47:33.606Z,4.80
2022-10-23T06:50:01.428Z,7.32
2022-10-23T06:52:45.996Z,7.85
2022-10-23T06:55:13.947Z,6.40
2022-10-23T06:57:40.601Z,7.15
2022-10-23T07:00:16.207Z,8.05
2022-10-23T07:02:42.969Z,5.28
2022-10-23T07:05:12.775Z,8.25
2022-10-23T07:07:40.250Z,11.02
2022-10-23T07:10:06.810Z,3.55
2022-10-23T07:12:33.185Z,10.05
2022-10-23T07:14:59.559Z,7.38
2022-10-23T07:17:25.962Z,5.38
2022-10-23T07:19:52.393Z,6.88
2022-10-23T07:22:18.754Z,6.43
2022-10-23T07:24:45.271Z,8.43
2022-10-23T07:27:11.756Z,9.20
2022-10-23T07:29:38.417Z,4.68
2022-10-23T07:32:04.976Z,12.60
2022-10-23T07:34:32.153Z,6.85
2022-10-23T07:36:58.629Z,8.15
2022-10-23T07:39:24.998Z,14.23
2022-10-23T07:41:51.462Z,10.05
2022-10-23T07:44:17.852Z,10.48
2022-10-23T07:46:44.224Z,11.82
2022-10-23T07:49:13.670Z,15.63
2022-10-23T07:51:41.866Z,12.43
2022-10-23T07:54:10.541Z,14.00
2022-10-23T07:56:37.593Z,24.30
2022-10-23T07:59:04.781Z,47.85
2022-10-23T08:01:33.314Z,19.67
2022-10-23T08:04:00.164Z,15.52
2022-10-23T08:06:26.577Z,32.05
2022-10-23T08:08:52.979Z,24.27
2022-10-23T08:11:25.904Z,20.80
2022-10-23T08:13:53.044Z,23.67
2022-10-23T08:16:19.509Z,25.02
2022-10-23T08:18:46.093Z,23.08
2022-10-23T08:21:12.569Z,20.63
2022-10-23T08:23:39.117Z,23.35
2022-10-23T08:26:06.730Z,20.25
2022-10-23T08:28:33.456Z,25.10
2022-10-23T08:31:06.105Z,22.63
2022-10-23T08:33:32.526Z,23.80
2022-10-23T08:35:58.937Z,36.92
2022-10-23T08:38:25.442Z,31.23
2022-10-23T08:40:52.670Z,39.72
2022-10-23T08:43:21.970Z,24.90
2022-10-23T08:45:53.849Z,18.80
2022-10-23T08:48:23.109Z,16.65
2022-10-23T08:50:51.648Z,25.05
2022-10-23T08:53:33.214Z,15.57
2022-10-23T08:56:02.876Z,16.60
2022-10-23T08:58:49.579Z,16.63
2022-10-23T09:01:31.834Z,16.63
2022-10-23T09:03:58.817Z,13.77
2022-10-23T09:06:35.434Z,13.30
2022-10-23T09:09:04.905Z,14.68
2022-10-23T09:11:38.519Z,15.27
2022-10-23T09:14:05.106Z,13.43
2022-10-23T09:16:51.772Z,12.70
2022-10-23T09:19:19.757Z,14.27
2022-10-23T09:21:47.088Z,13.57
2022-10-23T09:24:18.060Z,9.52
2022-10-23T09:29:19.684Z,9.80
2022-10-23T09:31:53.758Z,10.10
2022-10-23T09:34:22.355Z,10.77
2022-10-23T09:37:12.213Z,13.90
2022-10-23T09:39:38.571Z,19.48
2022-10-23T09:42:21.762Z,13.27
2022-10-23T09:44:51.664Z,8.95
2022-10-23T09:47:22.744Z,13.68
2022-10-23T09:49:53.339Z,11.18
2022-10-23T09:52:24.982Z,10.63
2022-10-23T09:54:59.163Z,12.20
2022-10-23T09:57:41.075Z,14.32
2022-10-23T10:00:28.056Z,10.27
2022-10-23T10:02:57.437Z,13.85
2022-10-23T10:05:25.826Z,12.60
2022-10-23T10:08:00.260Z,14.27
2022-10-23T10:10:29.507Z,11.20
2022-10-23T10:13:01.841Z,15.25
2022-10-23T10:15:31.580Z,14.43
2022-10-23T10:18:03.890Z,14.10
2022-10-23T10:20:30.180Z,9.52
2022-10-23T10:22:59.664Z,10.82
2022-10-23T10:25:42.288Z,12.32
2022-10-23T10:28:27.371Z,12.43
2022-10-23T10:31:11.636Z,14.25
2022-10-23T10:33:49.354Z,17.52
2022-10-23T10:36:36.714Z,12.48
2022-10-23T10:39:04.660Z,13.10
2022-10-23T10:41:37.377Z,14.80
2022-10-23T10:44:22.452Z,17.52
2022-10-23T10:46:59.716Z,9.50
2022-10-23T10:49:35.717Z,7.07
2022-10-23T10:52:02.162Z,7.65
2022-10-23T10:54:43.533Z,7.38
2022-10-23T10:57:16.746Z,7.10
2022-10-23T10:59:44.455Z,3.88
2022-10-23T11:02:17.053Z,7.22
2022-10-23T11:04:52.725Z,5.03
2022-10-23T11:07:22.099Z,6.30
2022-10-23T11:09:49.088Z,5.65
2022-10-23T11:12:20.661Z,8.15
2022-10-23T11:14:47.088Z,6.57
2022-10-23T11:17:35.225Z,14.75
2022-10-23T11:20:07.792Z,9.30
2022-10-23T11:22:42.420Z,5.13
2022-10-23T11:25:18.099Z,13.48
2022-10-23T11:28:03.673Z,7.68
2022-10-23T11:30:50.033Z,15.27
2022-10-23T11:33:32.001Z,10.25
2022-10-23T11:36:07.021Z,7.60
2022-10-23T11:38:34.982Z,10.95
2022-10-23T11:41:19.918Z,9.82
2022-10-23T11:43:57.113Z,16.80
2022-10-23T11:46:23.472Z,8.30
2022-10-23T11:48:50.489Z,8.90
2022-10-23T11:51:25.773Z,9.32
2022-10-23T11:53:52.148Z,13.50
2022-10-23T11:56:19.638Z,13.55
2022-10-23T11:58:50.512Z,11.60
2022-10-23T12:01:19.898Z,17.48
2022-10-23T12:03:58.564Z,12.07
2022-10-23T12:06:27.105Z,14.98
2022-10-23T12:08:55.040Z,12.10
2022-10-23T12:11:29.610Z,12.55
2022-10-23T12:13:56.352Z,8.10
2022-10-23T12:16:22.705Z,6.05
2022-10-23T12:18:50.744Z,8.70
2022-10-23T12:21:19.083Z,4.78
2022-10-23T12:23:48.539Z,12.25
2022-10-23T12:26:21.102Z,6.93
2022-10-23T12:28:59.071Z,10.18
2022-10-23T12:31:29.801Z,4.22
2022-10-23T12:34:16.887Z,5.65
2022-10-23T12:36:52.250Z,6.05
2022-10-23T12:39:25.565Z,6.38
2022-10-23T12:41:51.925Z,4.55
2022-10-23T12:44:18.363Z,5.13
2022-10-23T12:46:49.044Z,5.38
2022-10-23T12:49:17.165Z,6.05
2022-10-23T12:51:43.645Z,4.32
2022-10-23T12:54:15.123Z,10.77
2022-10-23T12:56:41.458Z,13.75
2022-10-23T12:59:14.516Z,6.78
2022-10-23T13:01:43.280Z,9.80
2022-10-23T13:04:28.663Z,8.02
2022-10-23T13:07:00.045Z,7.22
2022-10-23T13:09:34.857Z,10.05
2022-10-23T13:12:02.607Z,7.07
2022-10-23T13:14:43.591Z,8.88
2022-10-23T13:17:11.744Z,8.27
2022-10-23T13:19:38.186Z,5.68
2022-10-23T13:22:14.697Z,10.10
2022-10-23T13:24:41.329Z,11.95
2022-10-23T13:27:26.893Z,10.77
2022-10-23T13:29:53.311Z,8.98
2022-10-23T13:32:28.601Z,7.30
2022-10-23T13:35:20.360Z,3.42
2022-10-23T13:37:48.592Z,5.03
2022-10-23T13:40:25.992Z,8.40
2022-10-23T13:42:56.185Z,9.07
2022-10-23T13:45:23.705Z,4.72
2022-10-23T13:47:50.342Z,7.53
2022-10-23T13:50:17.134Z,9.38
2022-10-23T13:52:43.503Z,3.38
2022-10-23T13:55:22.961Z,9.55
2022-10-23T13:57:49.377Z,4.13
2022-10-23T14:00:16.252Z,5.93
2022-10-23T14:02:42.782Z,7.90
2022-10-23T14:05:09.762Z,4.10
2022-10-23T14:07:38.443Z,5.93
2022-10-23T14:10:05.131Z,3.00
2022-10-23T14:12:31.545Z,4.53
2022-10-23T14:14:57.962Z,5.28
2022-10-23T14:17:24.328Z,6.78
2022-10-23T14:19:50.691Z,6.50
2022-10-23T14:22:18.102Z,7.25
2022-10-23T14:25:04.760Z,5.60
2022-10-23T14:27:31.317Z,6.30
2022-10-23T14:30:01.528Z,4.30
2022-10-23T14:32:28.196Z,6.32
2022-10-23T14:34:54.792Z,7.90
2022-10-23T14:37:21.460Z,4.47
2022-10-23T14:39:50.113Z,4.82
2022-10-23T14:42:17.016Z,6.80
2022-10-23T14:44:43.788Z,7.18
2022-10-23T14:47:12.494Z,5.43
2022-10-23T14:49:40.319Z,4.22
2022-10-23T14:52:07.531Z,5.25
2022-10-23T14:54:35.386Z,7.65
2022-10-23T14:57:02.336Z,6.68
2022-10-23T14:59:28.917Z,5.30
2022-10-23T15:01:55.507Z,5.78
2022-10-23T15:04:22.050Z,8.48
2022-10-23T15:06:48.625Z,5.35
2022-10-23T15:09:15.409Z,7.20
2022-10-23T15:11:42.586Z,5.50
2022-10-23T15:14:09.078Z,4.63
2022-10-23T15:16:41.443Z,7.15
2022-10-23T15:19:10.891Z,2.63
2022-10-23T15:21:40.051Z,2.47
2022-10-23T15:24:06.638Z,3.58
2022-10-23T15:26:33.009Z,3.83
2022-10-23T15:29:00.782Z,1.88
2022-10-23T15:31:30.309Z,2.10
2022-10-23T15:33:57.682Z,1.52
2022-10-23T15:36:24.117Z,1.17
2022-10-23T15:38:50.764Z,1.67
2022-10-23T15:41:19.849Z,3.50
2022-10-23T15:43:46.421Z,1.80
2022-10-23T15:46:12.951Z,1.67
2022-10-23T15:48:39.456Z,2.20
2022-10-23T15:51:06.187Z,2.90
2022-10-23T15:53:34.299Z,3.40
2022-10-23T15:56:03.866Z,2.22
2022-10-23T15:58:30.463Z,2.55
2022-10-23T16:00:57.094Z,2.55
2022-10-23T16:03:23.788Z,3.53
2022-10-23T16:05:50.435Z,6.97
2022-10-23T16:08:16.949Z,7.45
2022-10-23T16:10:43.452Z,5.25
2022-10-23T16:13:09.893Z,5.93
2022-10-23T16:15:36.666Z,3.13
2022-10-23T16:18:03.611Z,5.32
2022-10-23T16:20:30.386Z,4.88
2022-10-23T16:22:56.826Z,8.18
2022-10-23T16:25:23.485Z,7.15
2022-10-23T16:27:50.082Z,4.07
2022-10-23T16:30:16.716Z,2.83
2022-10-23T16:32:43.504Z,2.60
2022-10-23T16:35:12.987Z,2.70
2022-10-23T16:37:39.753Z,2.20
2022-10-23T16:40:06.627Z,3.75
2022-10-23T16:42:33.606Z,3.85
2022-10-23T16:45:00.119Z,4.18
2022-10-23T16:47:26.624Z,4.57
2022-10-23T16:49:54.111Z,4.07
2022-10-23T16:52:20.841Z,3.78
2022-10-23T16:54:50.708Z,2.50
2022-10-23T16:57:17.340Z,4.25
2022-10-23T16:59:43.948Z,3.35
2022-10-23T17:02:11.393Z,3.67
2022-10-23T17:04:38.659Z,2.92
2022-10-23T17:07:05.580Z,2.42
2022-10-23T17:09:32.340Z,4.82
2022-10-23T17:12:01.974Z,3.78
2022-10-23T17:14:31.556Z,3.03
2022-10-23T17:16:59.836Z,3.13
2022-10-23T17:19:43.806Z,3.53
2022-10-23T17:22:12.664Z,2.58
2022-10-23T17:24:40.169Z,4.50
2022-10-23T17:27:06.774Z,7.05
2022-10-23T17:29:33.361Z,11.35
2022-10-23T17:31:59.849Z,8.13
2022-10-23T17:34:26.374Z,7.03
2022-10-23T17:36:54.643Z,8.98
2022-10-23T17:39:22.720Z,9.68
2022-10-23T17:41:49.352Z,8.32
2022-10-23T17:44:15.922Z,10.75
2022-10-23T17:46:42.380Z,5.85
2022-10-23T17:49:10.149Z,12.80
2022-10-23T17:51:36.717Z,8.32
2022-10-23T17:54:05.371Z,8.23
2022-10-23T17:56:33.003Z,9.15
2022-10-23T17:59:00.904Z,12.25
2022-10-23T18:01:28.213Z,6.63
2022-10-23T18:03:55.419Z,13.85
2022-10-23T18:06:32.747Z,13.30
2022-10-23T18:09:00.713Z,13.63
2022-10-23T18:11:30.943Z,8.32
2022-10-23T18:16:25.546Z,14.15
2022-10-23T18:18:52.746Z,10.25
2022-10-23T18:21:20.659Z,13.60
2022-10-23T18:23:49.926Z,12.68
2022-10-23T18:26:18.354Z,15.20
2022-10-23T18:28:48.037Z,8.27
2022-10-23T18:31:15.324Z,6.95
2022-10-23T18:33:42.046Z,6.93
2022-10-23T18:36:23.023Z,8.23
2022-10-23T18:38:50.103Z,8.10
2022-10-23T18:41:17.175Z,12.48
2022-10-23T18:43:44.856Z,11.82
2022-10-23T18:46:14.784Z,9.48
2022-10-23T18:48:43.531Z,13.75
2022-10-23T18:51:18.007Z,10.82
2022-10-23T18:53:46.918Z,9.15
2022-10-23T18:56:14.394Z,6.95
2022-10-23T18:58:40.928Z,12.75
2022-10-23T19:01:07.571Z,10.88
2022-10-23T19:03:34.121Z,9.10
2022-10-23T19:06:00.733Z,10.98
2022-10-23T19:08:27.414Z,11.48
2022-10-23T19:11:00.237Z,9.07
2022-10-23T19:13:28.243Z,11.98
2022-10-23T19:15:55.018Z,11.88
2022-10-23T19:18:21.721Z,10.43
2022-10-23T19:20:48.556Z,12.45
2022-10-23T19:23:16.062Z,13.02
2022-10-23T19:25:44.963Z,16.13
2022-10-23T19:28:11.620Z,16.48
2022-10-23T19:30:38.224Z,12.95
2022-10-23T19:33:04.862Z,13.13
2022-10-23T19:35:32.653Z,19.25
2022-10-23T19:37:59.342Z,15.82
2022-10-23T19:40:26.201Z,12.38
2022-10-23T19:42:54.329Z,14.35
2022-10-23T19:45:20.946Z,17.20
2022-10-23T19:47:48.186Z,16.75
2022-10-23T19:50:14.771Z,18.90
2022-10-23T19:52:41.320Z,17.20
2022-10-23T19:55:09.002Z,16.20
2022-10-23T19:57:35.708Z,20.65
2022-10-23T20:00:02.537Z,15.82
2022-10-23T20:02:33.173Z,14.52
2022-10-23T20:04:59.733Z,19.92
2022-10-23T20:07:26.447Z,14.82
2022-10-23T20:09:53.026Z,19.80
2022-10-23T20:12:19.452Z,21.40
2022-10-23T20:14:45.933Z,18.17
2022-10-23T20:17:12.574Z,17.20
2022-10-23T20:19:42.166Z,14.63
2022-10-23T20:22:08.679Z,13.77
2022-10-23T20:24:35.256Z,22.95
2022-10-23T20:27:01.819Z,16.13
2022-10-23T20:29:28.257Z,13.02
2022-10-23T20:31:54.673Z,14.65
2022-10-23T20:34:21.225Z,18.80
2022-10-23T20:36:52.020Z,16.48
2022-10-23T20:39:20.172Z,13.60
2022-10-23T20:41:47.051Z,14.43
2022-10-23T20:44:14.696Z,17.35
2022-10-23T20:46:41.580Z,11.85
2022-10-23T20:49:08.349Z,14.43
2022-10-23T20:51:36.149Z,14.15
2022-10-23T20:54:06.228Z,12.57
2022-10-23T20:56:37.414Z,13.97
2022-10-23T20:59:11.058Z,11.18
2022-10-23T21:01:40.113Z,10.05
2022-10-23T21:04:06.741Z,17.27
2022-10-23T21:06:45.682Z,10.85
2022-10-23T21:09:18.605Z,10.88
2022-10-23T21:11:45.073Z,11.90
2022-10-23T21:14:11.546Z,14.40
2022-10-23T21:16:40.883Z,9.90
2022-10-23T21:19:08.233Z,17.25
2022-10-23T21:21:35.076Z,17.38
2022-10-23T21:24:06.402Z,13.13
2022-10-23T21:26:35.292Z,12.00
2022-10-23T21:29:17.288Z,13.15
2022-10-23T21:31:44.316Z,9.63
2022-10-23T21:36:48.611Z,13.30
2022-10-23T21:39:23.950Z,13.15
2022-10-23T21:41:50.493Z,11.68
2022-10-23T21:44:17.102Z,11.68
2022-10-23T21:46:44.259Z,12.20
2022-10-23T21:49:11.638Z,11.95
2022-10-23T21:51:38.645Z,14.57
2022-10-23T21:54:06.098Z,15.50
2022-10-23T21:56:38.022Z,14.88
2022-10-23T22:01:34.157Z,13.43
2022-10-23T22:04:00.751Z,10.55
2022-10-23T22:06:28.685Z,7.45
2022-10-23T22:08:56.432Z,11.95
2022-10-23T22:11:23.214Z,9.98
2022-10-23T22:13:49.755Z,14.93
2022-10-23T22:16:16.538Z,14.00
2022-10-23T22:18:43.518Z,14.68
2022-10-23T22:21:11.830Z,16.90
2022-10-23T22:23:38.740Z,10.82
2022-10-23T22:26:10.383Z,10.80
2022-10-23T22:28:36.993Z,14.20
2022-10-23T22:31:04.625Z,17.27
2022-10-23T22:33:31.003Z,16.35
2022-10-23T22:36:03.614Z,13.80
2022-10-23T22:38:32.378Z,11.73
2022-10-23T22:41:02.047Z,13.05
2022-10-23T22:43:29.065Z,16.48
2022-10-23T22:46:15.641Z,12.38
2022-10-23T22:48:42.012Z,11.88
2022-10-23T22:51:10.460Z,7.18
2022-10-23T22:53:36.829Z,12.10
2022-10-23T22:56:10.294Z,12.70
2022-10-23T22:58:36.934Z,9.27
2022-10-23T23:01:08.436Z,13.90
2022-10-23T23:03:36.720Z,15.10
2022-10-23T23:06:04.227Z,16.13
2022-10-23T23:08:30.638Z,14.35
2022-10-23T23:10:57.372Z,13.57
2022-10-23T23:13:23.949Z,12.00
2022-10-23T23:15:50.478Z,16.05
2022-10-23T23:18:16.871Z,11.38
2022-10-23T23:20:43.504Z,15.85
2022-10-23T23:23:10.407Z,14.85
2022-10-23T23:25:40.085Z,13.00
2022-10-23T23:28:06.677Z,12.02
2022-10-23T23:30:33.174Z,12.13
2022-10-23T23:32:59.599Z,13.63
2022-10-23T23:35:25.973Z,9.95
2022-10-23T23:37:52.468Z,15.88
2022-10-23T23:40:19.036Z,14.30
2022-10-23T23:42:46.934Z,11.95
2022-10-23T23:45:15.198Z,11.35
2022-10-23T23:47:42.247Z,10.73
2022-10-23T23:50:10.022Z,11.88
2022-10-23T23:52:36.443Z,11.43
2022-10-23T23:55:02.995Z,11.90
2022-10-23T23:57:29.386Z,15.30
2022-10-23T23:59:55.849Z,12.55
